Mendota, IL

7:38 PM CST on February 05, 2016 (GMT -0600)
Welland and Angling Roads | | Change Station
CLOSE
Current Station
Personal Weather Station
Location: Earlville, IL
Elevation: 833 ft
Nearby Weather Stations

Elev 833 ft 41.63 °N, 89.02 °W | Updated 10 seconds ago

Overcast
Overcast
28.4 °F
Feels Like 25 °F
N
3.1
Wind Variable Wind from SW
Gusts 6.9 mph

Today
High -- | Low -- °F
--% Chance of Precip.
Yesterday
High -- | Low -- °F
Precip. -- in
Pressure 30.37 in
Visibility 10.0 miles
Clouds Mostly Cloudy 10000 ft
Windchill 25 °F
Dew Point 22 °F
Humidity 76%
Rainfall 0.00 in
Snow Depth Not available.
7:04 AM 5:16 PM
Waning Crescent, 8% visible
METAR KVYS 060115Z AUTO 19005KT 10SM BKN100 M01/M04 A3037 RMK AO2 T10111037
Pressure 30.37 in
Visibility 10.0 miles
Clouds Mostly Cloudy 10000 ft
Windchill 25 °F
Dew Point 22 °F
Humidity 76%
Rainfall 0.00 in
Snow Depth Not available.
7:04 AM 5:16 PM
Waning Crescent, 8% visible
METAR KVYS 060115Z AUTO 19005KT 10SM BKN100 M01/M04 A3037 RMK AO2 T10111037

10-Day Weather Forecast

Almanac

Astronomy

Feb. 05, 2016 Rise Set
Actual Time
Civil Twilight
Nautical Twilight
Astronomical Twilight
Moon
Length of Visible Light
Length of Day
Tomorrow will be .
, % of the Moon is Illuminated

Today's Extremes

State Highs State Lows

Community

WunderPhotos

Upload Photos

1,890,906 photos uploaded!

WunderBlog® & News

Nearby

Air Quality

  Air Quality AQ Index Pollutant
Not available.

Snow Depth

Station Depth Elevation

Earthquake Activity

City Distance Mag. Time & Date
Minimum magnitude displayed is 2.5.

Coastal Water Temperatures

Place Temperature

Stations

Nearby Weather Stations

Station Location Temp. Windchill Dew Point Humidity Wind Precip. Elev Updated Type
                   

Watches & Warnings

There are currently no watches in effect.